sensor_id;sensor_type;location;lat;lon;timestamp;temperature;humidity
71173;DHT22;58875;51.996;4.504;2023-01-04T00:02:12;9.66;89.97
71173;DHT22;58875;51.996;4.504;2023-01-04T00:04:48;9.66;90.01
71173;DHT22;58875;51.996;4.504;2023-01-04T00:07:14;9.71;90.09
71173;DHT22;58875;51.996;4.504;2023-01-04T00:09:40;9.70;89.84
71173;DHT22;58875;51.996;4.504;2023-01-04T00:12:05;9.74;89.79
71173;DHT22;58875;51.996;4.504;2023-01-04T00:14:31;9.67;89.93
71173;DHT22;58875;51.996;4.504;2023-01-04T00:16:57;9.69;90.20
71173;DHT22;58875;51.996;4.504;2023-01-04T00:19:22;9.67;90.26
71173;DHT22;58875;51.996;4.504;2023-01-04T00:21:48;9.67;90.24
71173;DHT22;58875;51.996;4.504;2023-01-04T00:24:16;9.66;90.42
71173;DHT22;58875;51.996;4.504;2023-01-04T00:26:42;9.69;90.49
71173;DHT22;58875;51.996;4.504;2023-01-04T00:29:11;9.67;90.46
71173;DHT22;58875;51.996;4.504;2023-01-04T00:31:37;9.70;90.62
71173;DHT22;58875;51.996;4.504;2023-01-04T00:34:04;9.66;90.82
71173;DHT22;58875;51.996;4.504;2023-01-04T00:36:31;9.73;90.80
71173;DHT22;58875;51.996;4.504;2023-01-04T00:38:58;9.76;90.52
71173;DHT22;58875;51.996;4.504;2023-01-04T00:41:47;9.74;90.64
71173;DHT22;58875;51.996;4.504;2023-01-04T00:44:13;9.77;90.60
71173;DHT22;58875;51.996;4.504;2023-01-04T00:46:41;9.76;90.74
71173;DHT22;58875;51.996;4.504;2023-01-04T00:49:09;9.78;90.65
71173;DHT22;58875;51.996;4.504;2023-01-04T00:51:43;9.84;90.80
71173;DHT22;58875;51.996;4.504;2023-01-04T00:54:13;9.84;90.51
71173;DHT22;58875;51.996;4.504;2023-01-04T00:56:39;9.88;90.51
71173;DHT22;58875;51.996;4.504;2023-01-04T00:59:05;9.93;90.51
71173;DHT22;58875;51.996;4.504;2023-01-04T01:01:32;9.90;90.61
71173;DHT22;58875;51.996;4.504;2023-01-04T01:04:01;9.95;90.53
71173;DHT22;58875;51.996;4.504;2023-01-04T01:06:29;9.99;90.39
71173;DHT22;58875;51.996;4.504;2023-01-04T01:08:55;10.05;90.44
71173;DHT22;58875;51.996;4.504;2023-01-04T01:11:21;10.01;90.30
71173;DHT22;58875;51.996;4.504;2023-01-04T01:13:47;10.07;90.41
71173;DHT22;58875;51.996;4.504;2023-01-04T01:16:15;10.09;90.43
71173;DHT22;58875;51.996;4.504;2023-01-04T01:18:44;10.14;90.24
71173;DHT22;58875;51.996;4.504;2023-01-04T01:21:12;10.15;90.29
71173;DHT22;58875;51.996;4.504;2023-01-04T01:23:39;10.18;90.33
71173;DHT22;58875;51.996;4.504;2023-01-04T01:26:09;10.22;90.39
71173;DHT22;58875;51.996;4.504;2023-01-04T01:28:35;10.25;90.46
71173;DHT22;58875;51.996;4.504;2023-01-04T01:31:16;10.25;90.35
71173;DHT22;58875;51.996;4.504;2023-01-04T01:33:44;10.28;90.50
71173;DHT22;58875;51.996;4.504;2023-01-04T01:36:14;10.31;90.58
71173;DHT22;58875;51.996;4.504;2023-01-04T01:38:41;10.41;90.37
71173;DHT22;58875;51.996;4.504;2023-01-04T01:41:09;10.42;90.40
71173;DHT22;58875;51.996;4.504;2023-01-04T01:43:56;10.45;90.37
71173;DHT22;58875;51.996;4.504;2023-01-04T01:46:26;10.44;90.23
71173;DHT22;58875;51.996;4.504;2023-01-04T01:49:05;10.49;90.30
71173;DHT22;58875;51.996;4.504;2023-01-04T01:51:34;10.49;90.19
71173;DHT22;58875;51.996;4.504;2023-01-04T01:54:05;10.57;89.91
71173;DHT22;58875;51.996;4.504;2023-01-04T01:56:46;10.57;89.98
71173;DHT22;58875;51.996;4.504;2023-01-04T01:59:16;10.59;89.88
71173;DHT22;58875;51.996;4.504;2023-01-04T02:01:43;10.67;89.71
71173;DHT22;58875;51.996;4.504;2023-01-04T02:04:10;10.66;89.76
71173;DHT22;58875;51.996;4.504;2023-01-04T02:06:41;10.70;89.77
71173;DHT22;58875;51.996;4.504;2023-01-04T02:09:08;10.69;89.66
71173;DHT22;58875;51.996;4.504;2023-01-04T02:11:34;10.75;89.51
71173;DHT22;58875;51.996;4.504;2023-01-04T02:14:02;10.77;89.48
71173;DHT22;58875;51.996;4.504;2023-01-04T02:28:01;10.80;90.01
71173;DHT22;58875;51.996;4.504;2023-01-04T02:39:25;10.90;89.93
71173;DHT22;58875;51.996;4.504;2023-01-04T02:44:57;10.96;90.19
71173;DHT22;58875;51.996;4.504;2023-01-04T02:47:28;11.01;90.05
71173;DHT22;58875;51.996;4.504;2023-01-04T02:50:30;11.04;90.11
71173;DHT22;58875;51.996;4.504;2023-01-04T02:53:11;11.06;90.00
71173;DHT22;58875;51.996;4.504;2023-01-04T02:56:02;11.03;89.84
71173;DHT22;58875;51.996;4.504;2023-01-04T03:04:37;11.14;89.67
71173;DHT22;58875;51.996;4.504;2023-01-04T03:07:40;11.10;89.92
71173;DHT22;58875;51.996;4.504;2023-01-04T03:16:23;11.06;90.06
71173;DHT22;58875;51.996;4.504;2023-01-04T03:18:54;11.06;90.13
71173;DHT22;58875;51.996;4.504;2023-01-04T03:21:26;11.06;90.00
71173;DHT22;58875;51.996;4.504;2023-01-04T03:23:56;11.06;90.04
71173;DHT22;58875;51.996;4.504;2023-01-04T03:26:53;11.04;89.98
71173;DHT22;58875;51.996;4.504;2023-01-04T03:29:53;11.08;89.93
71173;DHT22;58875;51.996;4.504;2023-01-04T03:32:58;11.16;90.07
71173;DHT22;58875;51.996;4.504;2023-01-04T03:36:11;11.21;89.91
71173;DHT22;58875;51.996;4.504;2023-01-04T03:39:00;11.14;89.98
71173;DHT22;58875;51.996;4.504;2023-01-04T03:41:57;11.16;90.07
71173;DHT22;58875;51.996;4.504;2023-01-04T03:45:02;11.14;90.11
71173;DHT22;58875;51.996;4.504;2023-01-04T03:48:24;11.16;90.08
71173;DHT22;58875;51.996;4.504;2023-01-04T03:51:30;11.13;90.38
71173;DHT22;58875;51.996;4.504;2023-01-04T03:54:18;11.17;90.18
71173;DHT22;58875;51.996;4.504;2023-01-04T03:56:47;11.20;90.05
71173;DHT22;58875;51.996;4.504;2023-01-04T03:59:14;11.21;89.97
71173;DHT22;58875;51.996;4.504;2023-01-04T04:01:42;11.27;89.97
71173;DHT22;58875;51.996;4.504;2023-01-04T04:04:09;11.26;89.99
71173;DHT22;58875;51.996;4.504;2023-01-04T04:06:53;11.27;89.72
71173;DHT22;58875;51.996;4.504;2023-01-04T04:09:37;11.35;89.56
71173;DHT22;58875;51.996;4.504;2023-01-04T04:12:03;11.38;89.40
71173;DHT22;58875;51.996;4.504;2023-01-04T04:14:28;11.45;89.28
71173;DHT22;58875;51.996;4.504;2023-01-04T04:16:54;11.52;88.97
71173;DHT22;58875;51.996;4.504;2023-01-04T04:19:19;11.50;89.01
71173;DHT22;58875;51.996;4.504;2023-01-04T04:21:44;11.58;88.77
71173;DHT22;58875;51.996;4.504;2023-01-04T04:24:21;11.62;88.66
71173;DHT22;58875;51.996;4.504;2023-01-04T04:26:49;11.68;88.62
71173;DHT22;58875;51.996;4.504;2023-01-04T04:29:15;11.65;88.86
71173;DHT22;58875;51.996;4.504;2023-01-04T04:31:41;11.64;89.13
71173;DHT22;58875;51.996;4.504;2023-01-04T04:34:06;11.61;89.36
71173;DHT22;58875;51.996;4.504;2023-01-04T04:36:32;11.62;89.59
71173;DHT22;58875;51.996;4.504;2023-01-04T04:38:57;11.55;89.90
71173;DHT22;58875;51.996;4.504;2023-01-04T04:41:23;11.57;90.12
71173;DHT22;58875;51.996;4.504;2023-01-04T04:44:05;11.51;90.31
71173;DHT22;58875;51.996;4.504;2023-01-04T04:46:31;11.55;90.49
71173;DHT22;58875;51.996;4.504;2023-01-04T04:48:57;11.55;90.53
71173;DHT22;58875;51.996;4.504;2023-01-04T04:51:22;11.58;90.60
71173;DHT22;58875;51.996;4.504;2023-01-04T04:53:48;11.61;90.35
71173;DHT22;58875;51.996;4.504;2023-01-04T04:56:14;11.59;90.49
71173;DHT22;58875;51.996;4.504;2023-01-04T04:58:40;11.55;90.71
71173;DHT22;58875;51.996;4.504;2023-01-04T05:01:06;11.58;90.67
71173;DHT22;58875;51.996;4.504;2023-01-04T05:03:31;11.52;90.60
71173;DHT22;58875;51.996;4.504;2023-01-04T05:05:57;11.50;90.64
71173;DHT22;58875;51.996;4.504;2023-01-04T05:08:23;11.54;90.81
71173;DHT22;58875;51.996;4.504;2023-01-04T05:10:48;11.54;90.69
71173;DHT22;58875;51.996;4.504;2023-01-04T05:13:14;11.57;90.78
71173;DHT22;58875;51.996;4.504;2023-01-04T05:15:42;11.58;90.83
71173;DHT22;58875;51.996;4.504;2023-01-04T05:18:10;11.62;90.60
71173;DHT22;58875;51.996;4.504;2023-01-04T05:20:36;11.59;90.70
71173;DHT22;58875;51.996;4.504;2023-01-04T05:23:01;11.62;90.57
71173;DHT22;58875;51.996;4.504;2023-01-04T05:25:27;11.61;90.49
71173;DHT22;58875;51.996;4.504;2023-01-04T05:27:53;11.64;90.49
71173;DHT22;58875;51.996;4.504;2023-01-04T05:30:19;11.74;90.40
71173;DHT22;58875;51.996;4.504;2023-01-04T05:33:04;11.69;90.48
71173;DHT22;58875;51.996;4.504;2023-01-04T05:35:31;11.69;90.39
71173;DHT22;58875;51.996;4.504;2023-01-04T05:37:56;11.65;90.41
71173;DHT22;58875;51.996;4.504;2023-01-04T05:40:22;11.69;90.59
71173;DHT22;58875;51.996;4.504;2023-01-04T05:42:48;11.71;90.33
71173;DHT22;58875;51.996;4.504;2023-01-04T05:45:14;11.72;90.42
71173;DHT22;58875;51.996;4.504;2023-01-04T05:47:41;11.76;90.31
71173;DHT22;58875;51.996;4.504;2023-01-04T05:50:07;11.76;90.27
71173;DHT22;58875;51.996;4.504;2023-01-04T05:52:34;11.74;90.26
71173;DHT22;58875;51.996;4.504;2023-01-04T05:54:59;11.76;90.24
71173;DHT22;58875;51.996;4.504;2023-01-04T05:57:26;11.79;90.08
71173;DHT22;58875;51.996;4.504;2023-01-04T05:59:51;11.78;90.15
71173;DHT22;58875;51.996;4.504;2023-01-04T06:02:20;11.78;89.89
71173;DHT22;58875;51.996;4.504;2023-01-04T06:04:46;11.81;89.88
71173;DHT22;58875;51.996;4.504;2023-01-04T06:07:13;11.83;89.83
71173;DHT22;58875;51.996;4.504;2023-01-04T06:09:39;11.86;89.69
71173;DHT22;58875;51.996;4.504;2023-01-04T06:12:05;11.89;89.66
71173;DHT22;58875;51.996;4.504;2023-01-04T06:14:31;11.90;89.53
71173;DHT22;58875;51.996;4.504;2023-01-04T06:16:56;11.92;89.36
71173;DHT22;58875;51.996;4.504;2023-01-04T06:19:23;11.96;89.31
71173;DHT22;58875;51.996;4.504;2023-01-04T06:21:48;11.96;89.58
71173;DHT22;58875;51.996;4.504;2023-01-04T06:24:14;11.99;89.45
71173;DHT22;58875;51.996;4.504;2023-01-04T06:26:39;11.95;89.63
71173;DHT22;58875;51.996;4.504;2023-01-04T06:29:05;11.96;89.53
71173;DHT22;58875;51.996;4.504;2023-01-04T06:31:30;11.99;89.60
71173;DHT22;58875;51.996;4.504;2023-01-04T06:33:58;11.99;89.68
71173;DHT22;58875;51.996;4.504;2023-01-04T06:36:23;11.96;89.74
71173;DHT22;58875;51.996;4.504;2023-01-04T06:38:49;11.96;89.77
71173;DHT22;58875;51.996;4.504;2023-01-04T06:41:14;12.00;89.51
71173;DHT22;58875;51.996;4.504;2023-01-04T06:43:40;11.99;89.68
71173;DHT22;58875;51.996;4.504;2023-01-04T06:46:06;12.06;89.73
71173;DHT22;58875;51.996;4.504;2023-01-04T06:48:31;12.00;89.68
71173;DHT22;58875;51.996;4.504;2023-01-04T06:50:57;11.98;89.91
71173;DHT22;58875;51.996;4.504;2023-01-04T06:53:22;12.03;89.83
71173;DHT22;58875;51.996;4.504;2023-01-04T06:55:48;12.00;89.89
71173;DHT22;58875;51.996;4.504;2023-01-04T06:58:14;11.98;89.94
71173;DHT22;58875;51.996;4.504;2023-01-04T07:00:39;11.99;89.99
71173;DHT22;58875;51.996;4.504;2023-01-04T07:03:05;11.96;90.07
71173;DHT22;58875;51.996;4.504;2023-01-04T07:05:30;11.96;90.19
71173;DHT22;58875;51.996;4.504;2023-01-04T07:07:59;11.95;90.25
71173;DHT22;58875;51.996;4.504;2023-01-04T07:10:25;11.98;90.24
71173;DHT22;58875;51.996;4.504;2023-01-04T07:12:50;12.00;90.13
71173;DHT22;58875;51.996;4.504;2023-01-04T07:15:16;12.05;90.11
71173;DHT22;58875;51.996;4.504;2023-01-04T07:17:41;12.00;90.22
71173;DHT22;58875;51.996;4.504;2023-01-04T07:20:10;11.98;90.32
71173;DHT22;58875;51.996;4.504;2023-01-04T07:22:35;11.99;90.51
71173;DHT22;58875;51.996;4.504;2023-01-04T07:25:01;11.95;90.57
71173;DHT22;58875;51.996;4.504;2023-01-04T07:27:28;11.95;90.78
71173;DHT22;58875;51.996;4.504;2023-01-04T07:29:53;11.95;90.73
71173;DHT22;58875;51.996;4.504;2023-01-04T07:32:19;12.00;90.56
71173;DHT22;58875;51.996;4.504;2023-01-04T07:34:44;12.00;90.50
71173;DHT22;58875;51.996;4.504;2023-01-04T07:37:10;11.99;90.30
71173;DHT22;58875;51.996;4.504;2023-01-04T07:39:35;12.02;90.38
71173;DHT22;58875;51.996;4.504;2023-01-04T07:42:01;11.98;90.45
71173;DHT22;58875;51.996;4.504;2023-01-04T07:44:26;11.99;90.48
71173;DHT22;58875;51.996;4.504;2023-01-04T07:46:53;11.96;90.58
71173;DHT22;58875;51.996;4.504;2023-01-04T07:49:19;11.92;90.82
71173;DHT22;58875;51.996;4.504;2023-01-04T07:51:46;11.90;91.04
71173;DHT22;58875;51.996;4.504;2023-01-04T07:54:12;11.90;91.21
71173;DHT22;58875;51.996;4.504;2023-01-04T07:56:38;11.93;91.40
71173;DHT22;58875;51.996;4.504;2023-01-04T07:59:05;11.93;91.31
71173;DHT22;58875;51.996;4.504;2023-01-04T08:01:31;11.92;91.48
71173;DHT22;58875;51.996;4.504;2023-01-04T08:03:59;11.92;91.53
71173;DHT22;58875;51.996;4.504;2023-01-04T08:06:26;11.95;91.54
71173;DHT22;58875;51.996;4.504;2023-01-04T08:08:52;12.02;91.51
71173;DHT22;58875;51.996;4.504;2023-01-04T08:11:19;12.05;91.35
71173;DHT22;58875;51.996;4.504;2023-01-04T08:13:47;12.08;91.18
71173;DHT22;58875;51.996;4.504;2023-01-04T08:18:57;12.12;91.38
71173;DHT22;58875;51.996;4.504;2023-01-04T08:21:24;12.15;91.21
71173;DHT22;58875;51.996;4.504;2023-01-04T08:23:50;12.15;91.24
71173;DHT22;58875;51.996;4.504;2023-01-04T08:26:16;12.16;91.31
71173;DHT22;58875;51.996;4.504;2023-01-04T08:28:43;12.16;91.25
71173;DHT22;58875;51.996;4.504;2023-01-04T08:31:12;12.17;91.10
71173;DHT22;58875;51.996;4.504;2023-01-04T08:33:40;12.25;90.91
71173;DHT22;58875;51.996;4.504;2023-01-04T08:36:08;12.27;90.83
71173;DHT22;58875;51.996;4.504;2023-01-04T08:38:34;12.26;90.73
71173;DHT22;58875;51.996;4.504;2023-01-04T08:41:00;12.32;90.62
71173;DHT22;58875;51.996;4.504;2023-01-04T08:43:25;12.32;90.70
71173;DHT22;58875;51.996;4.504;2023-01-04T08:45:51;12.36;90.74
71173;DHT22;58875;51.996;4.504;2023-01-04T08:48:16;12.34;90.61
71173;DHT22;58875;51.996;4.504;2023-01-04T08:50:42;12.33;90.68
71173;DHT22;58875;51.996;4.504;2023-01-04T08:53:07;12.29;90.94
71173;DHT22;58875;51.996;4.504;2023-01-04T08:55:33;12.30;90.92
71173;DHT22;58875;51.996;4.504;2023-01-04T08:57:59;12.34;90.97
71173;DHT22;58875;51.996;4.504;2023-01-04T09:00:25;12.29;91.03
71173;DHT22;58875;51.996;4.504;2023-01-04T09:02:51;12.27;91.12
71173;DHT22;58875;51.996;4.504;2023-01-04T09:05:17;12.27;91.09
71173;DHT22;58875;51.996;4.504;2023-01-04T09:07:43;12.25;91.23
71173;DHT22;58875;51.996;4.504;2023-01-04T09:10:09;12.25;91.19
71173;DHT22;58875;51.996;4.504;2023-01-04T09:12:35;12.26;91.00
71173;DHT22;58875;51.996;4.504;2023-01-04T09:15:01;12.29;90.98
71173;DHT22;58875;51.996;4.504;2023-01-04T09:17:27;12.32;90.87
71173;DHT22;58875;51.996;4.504;2023-01-04T09:19:52;12.29;90.95
71173;DHT22;58875;51.996;4.504;2023-01-04T09:22:18;12.29;90.96
71173;DHT22;58875;51.996;4.504;2023-01-04T09:24:43;12.29;90.88
71173;DHT22;58875;51.996;4.504;2023-01-04T09:27:09;12.32;90.77
71173;DHT22;58875;51.996;4.504;2023-01-04T09:29:34;12.34;90.80
71173;DHT22;58875;51.996;4.504;2023-01-04T09:32:00;12.36;90.81
71173;DHT22;58875;51.996;4.504;2023-01-04T09:34:25;12.41;90.79
71173;DHT22;58875;51.996;4.504;2023-01-04T09:36:51;12.40;90.75
71173;DHT22;58875;51.996;4.504;2023-01-04T09:39:17;12.39;90.63
71173;DHT22;58875;51.996;4.504;2023-01-04T09:47:10;12.44;90.14
71173;DHT22;58875;51.996;4.504;2023-01-04T09:50:04;12.46;90.25
71173;DHT22;58875;51.996;4.504;2023-01-04T09:55:27;12.44;90.24
71173;DHT22;58875;51.996;4.504;2023-01-04T09:58:00;12.48;90.13
71173;DHT22;58875;51.996;4.504;2023-01-04T10:00:36;12.47;89.85
71173;DHT22;58875;51.996;4.504;2023-01-04T10:03:06;12.50;89.71
71173;DHT22;58875;51.996;4.504;2023-01-04T10:05:35;12.51;89.56
71173;DHT22;58875;51.996;4.504;2023-01-04T10:08:01;12.54;89.42
71173;DHT22;58875;51.996;4.504;2023-01-04T10:10:47;12.57;89.50
71173;DHT22;58875;51.996;4.504;2023-01-04T10:16:33;12.56;89.75
71173;DHT22;58875;51.996;4.504;2023-01-04T10:22:19;12.50;89.94
71173;DHT22;58875;51.996;4.504;2023-01-04T10:27:36;12.51;90.01
71173;DHT22;58875;51.996;4.504;2023-01-04T10:33:14;12.56;89.86
71173;DHT22;58875;51.996;4.504;2023-01-04T10:35:41;12.57;90.02
71173;DHT22;58875;51.996;4.504;2023-01-04T10:38:31;12.61;90.02
71173;DHT22;58875;51.996;4.504;2023-01-04T10:41:11;12.60;89.89
71173;DHT22;58875;51.996;4.504;2023-01-04T10:49:16;12.73;89.21
71173;DHT22;58875;51.996;4.504;2023-01-04T10:52:03;12.73;88.85
71173;DHT22;58875;51.996;4.504;2023-01-04T10:54:40;12.78;88.71
71173;DHT22;58875;51.996;4.504;2023-01-04T10:57:17;12.76;88.80
71173;DHT22;58875;51.996;4.504;2023-01-04T10:59:53;12.78;88.66
71173;DHT22;58875;51.996;4.504;2023-01-04T11:02:40;12.80;88.42
71173;DHT22;58875;51.996;4.504;2023-01-04T11:05:18;12.84;88.56
71173;DHT22;58875;51.996;4.504;2023-01-04T11:07:52;12.83;88.15
71173;DHT22;58875;51.996;4.504;2023-01-04T11:10:27;12.84;88.42
71173;DHT22;58875;51.996;4.504;2023-01-04T11:12:54;12.88;87.91
71173;DHT22;58875;51.996;4.504;2023-01-04T11:15:20;12.87;87.83
71173;DHT22;58875;51.996;4.504;2023-01-04T11:17:47;12.92;87.67
71173;DHT22;58875;51.996;4.504;2023-01-04T11:20:13;12.94;87.60
71173;DHT22;58875;51.996;4.504;2023-01-04T11:25:10;12.91;87.57
71173;DHT22;58875;51.996;4.504;2023-01-04T11:31:00;12.92;87.22
71173;DHT22;58875;51.996;4.504;2023-01-04T11:33:28;12.95;87.22
71173;DHT22;58875;51.996;4.504;2023-01-04T11:35:55;12.99;87.19
71173;DHT22;58875;51.996;4.504;2023-01-04T11:38:29;12.95;87.15
71173;DHT22;58875;51.996;4.504;2023-01-04T11:43:36;12.95;86.91
71173;DHT22;58875;51.996;4.504;2023-01-04T11:46:20;12.98;86.82
71173;DHT22;58875;51.996;4.504;2023-01-04T11:48:46;12.92;86.78
71173;DHT22;58875;51.996;4.504;2023-01-04T11:51:33;12.94;86.67
71173;DHT22;58875;51.996;4.504;2023-01-04T11:54:25;12.94;86.68
71173;DHT22;58875;51.996;4.504;2023-01-04T11:57:03;12.95;86.45
71173;DHT22;58875;51.996;4.504;2023-01-04T11:59:31;13.02;86.16
71173;DHT22;58875;51.996;4.504;2023-01-04T12:02:18;13.09;86.00
71173;DHT22;58875;51.996;4.504;2023-01-04T12:04:43;13.08;85.95
71173;DHT22;58875;51.996;4.504;2023-01-04T12:09:50;13.07;86.03
71173;DHT22;58875;51.996;4.504;2023-01-04T12:12:15;13.02;85.99
71173;DHT22;58875;51.996;4.504;2023-01-04T12:14:47;13.04;86.13
71173;DHT22;58875;51.996;4.504;2023-01-04T12:17:27;13.04;85.85
71173;DHT22;58875;51.996;4.504;2023-01-04T12:19:56;12.97;85.86
71173;DHT22;58875;51.996;4.504;2023-01-04T12:22:37;12.92;86.04
71173;DHT22;58875;51.996;4.504;2023-01-04T12:25:08;12.97;86.46
71173;DHT22;58875;51.996;4.504;2023-01-04T12:27:48;12.99;86.46
71173;DHT22;58875;51.996;4.504;2023-01-04T12:33:44;12.84;86.86
71173;DHT22;58875;51.996;4.504;2023-01-04T12:36:12;12.88;86.89
71173;DHT22;58875;51.996;4.504;2023-01-04T12:50:08;12.92;86.66
71173;DHT22;58875;51.996;4.504;2023-01-04T12:52:49;12.92;86.61
71173;DHT22;58875;51.996;4.504;2023-01-04T12:57:57;12.87;86.20
71173;DHT22;58875;51.996;4.504;2023-01-04T13:08:16;12.84;86.38
71173;DHT22;58875;51.996;4.504;2023-01-04T13:10:51;12.84;86.35
71173;DHT22;58875;51.996;4.504;2023-01-04T13:21:15;12.92;85.80
71173;DHT22;58875;51.996;4.504;2023-01-04T13:23:54;12.88;85.82
71173;DHT22;58875;51.996;4.504;2023-01-04T13:29:30;12.95;85.64
71173;DHT22;58875;51.996;4.504;2023-01-04T13:32:07;12.94;85.64
71173;DHT22;58875;51.996;4.504;2023-01-04T13:34:49;13.01;85.28
71173;DHT22;58875;51.996;4.504;2023-01-04T13:37:24;13.04;85.12
71173;DHT22;58875;51.996;4.504;2023-01-04T13:45:57;13.07;84.68
71173;DHT22;58875;51.996;4.504;2023-01-04T13:48:25;13.08;84.43
71173;DHT22;58875;51.996;4.504;2023-01-04T13:51:16;13.12;84.14
71173;DHT22;58875;51.996;4.504;2023-01-04T13:53:57;13.16;83.99
71173;DHT22;58875;51.996;4.504;2023-01-04T13:56:25;13.14;83.78
71173;DHT22;58875;51.996;4.504;2023-01-04T13:58:52;13.15;83.49
71173;DHT22;58875;51.996;4.504;2023-01-04T14:01:40;13.20;83.46
71173;DHT22;58875;51.996;4.504;2023-01-04T14:04:16;13.20;83.47
71173;DHT22;58875;51.996;4.504;2023-01-04T14:06:50;13.25;83.03
71173;DHT22;58875;51.996;4.504;2023-01-04T14:09:21;13.26;82.81
71173;DHT22;58875;51.996;4.504;2023-01-04T14:11:57;13.26;82.70
71173;DHT22;58875;51.996;4.504;2023-01-04T14:22:32;13.26;82.60
71173;DHT22;58875;51.996;4.504;2023-01-04T14:30:45;13.11;82.51
71173;DHT22;58875;51.996;4.504;2023-01-04T14:33:24;13.14;82.60
71173;DHT22;58875;51.996;4.504;2023-01-04T14:36:20;13.18;82.72
71173;DHT22;58875;51.996;4.504;2023-01-04T14:46:27;13.15;82.31
71173;DHT22;58875;51.996;4.504;2023-01-04T14:48:54;13.12;82.14
71173;DHT22;58875;51.996;4.504;2023-01-04T14:51:31;13.14;81.96
71173;DHT22;58875;51.996;4.504;2023-01-04T14:53:57;13.11;82.39
71173;DHT22;58875;51.996;4.504;2023-01-04T14:56:22;13.08;82.40
71173;DHT22;58875;51.996;4.504;2023-01-04T14:58:48;13.08;82.30
71173;DHT22;58875;51.996;4.504;2023-01-04T15:01:13;13.04;82.31
71173;DHT22;58875;51.996;4.504;2023-01-04T15:03:39;13.04;82.41
71173;DHT22;58875;51.996;4.504;2023-01-04T15:06:05;13.02;82.37
71173;DHT22;58875;51.996;4.504;2023-01-04T15:08:31;13.01;82.46
71173;DHT22;58875;51.996;4.504;2023-01-04T15:10:57;12.95;82.75
71173;DHT22;58875;51.996;4.504;2023-01-04T15:13:23;12.94;82.63
71173;DHT22;58875;51.996;4.504;2023-01-04T15:15:49;12.92;82.65
71173;DHT22;58875;51.996;4.504;2023-01-04T15:18:17;12.94;82.40
71173;DHT22;58875;51.996;4.504;2023-01-04T15:20:43;12.91;82.60
71173;DHT22;58875;51.996;4.504;2023-01-04T15:23:12;12.91;82.40
71173;DHT22;58875;51.996;4.504;2023-01-04T15:25:39;12.97;82.26
71173;DHT22;58875;51.996;4.504;2023-01-04T15:28:05;12.94;81.77
71173;DHT22;58875;51.996;4.504;2023-01-04T15:30:30;13.01;81.70
71173;DHT22;58875;51.996;4.504;2023-01-04T15:32:56;13.02;81.68
71173;DHT22;58875;51.996;4.504;2023-01-04T15:35:24;12.97;81.91
71173;DHT22;58875;51.996;4.504;2023-01-04T15:37:50;12.97;81.83
71173;DHT22;58875;51.996;4.504;2023-01-04T15:40:18;12.91;82.13
71173;DHT22;58875;51.996;4.504;2023-01-04T15:42:44;12.88;82.27
71173;DHT22;58875;51.996;4.504;2023-01-04T15:45:30;12.85;82.37
71173;DHT22;58875;51.996;4.504;2023-01-04T15:47:59;12.83;82.45
71173;DHT22;58875;51.996;4.504;2023-01-04T15:50:29;12.76;82.84
71173;DHT22;58875;51.996;4.504;2023-01-04T15:52:55;12.71;82.97
71173;DHT22;58875;51.996;4.504;2023-01-04T15:55:24;12.71;82.80
71173;DHT22;58875;51.996;4.504;2023-01-04T15:57:50;12.67;82.96
71173;DHT22;58875;51.996;4.504;2023-01-04T16:00:15;12.63;83.14
71173;DHT22;58875;51.996;4.504;2023-01-04T16:02:44;12.57;83.28
71173;DHT22;58875;51.996;4.504;2023-01-04T16:05:10;12.60;83.29
71173;DHT22;58875;51.996;4.504;2023-01-04T16:07:35;12.54;83.38
71173;DHT22;58875;51.996;4.504;2023-01-04T16:10:01;12.50;83.53
71173;DHT22;58875;51.996;4.504;2023-01-04T16:12:29;12.56;83.56
71173;DHT22;58875;51.996;4.504;2023-01-04T16:17:33;12.58;83.19
71173;DHT22;58875;51.996;4.504;2023-01-04T16:20:02;12.60;83.09
71173;DHT22;58875;51.996;4.504;2023-01-04T16:22:28;12.58;82.73
71173;DHT22;58875;51.996;4.504;2023-01-04T16:24:53;12.63;82.53
71173;DHT22;58875;51.996;4.504;2023-01-04T16:27:19;12.67;82.31
71173;DHT22;58875;51.996;4.504;2023-01-04T16:29:44;12.68;82.03
71173;DHT22;58875;51.996;4.504;2023-01-04T16:32:10;12.71;82.04
71173;DHT22;58875;51.996;4.504;2023-01-04T16:34:36;12.65;82.11
71173;DHT22;58875;51.996;4.504;2023-01-04T16:37:02;12.68;81.92
71173;DHT22;58875;51.996;4.504;2023-01-04T16:39:27;12.60;82.06
71173;DHT22;58875;51.996;4.504;2023-01-04T16:41:53;12.60;82.06
71173;DHT22;58875;51.996;4.504;2023-01-04T16:44:18;12.57;81.87
71173;DHT22;58875;51.996;4.504;2023-01-04T16:46:45;12.58;81.65
71173;DHT22;58875;51.996;4.504;2023-01-04T16:49:14;12.61;81.66
71173;DHT22;58875;51.996;4.504;2023-01-04T16:51:42;12.63;81.60
71173;DHT22;58875;51.996;4.504;2023-01-04T16:54:13;12.64;81.47
71173;DHT22;58875;51.996;4.504;2023-01-04T16:56:44;12.65;81.39
71173;DHT22;58875;51.996;4.504;2023-01-04T16:59:15;12.65;81.54
71173;DHT22;58875;51.996;4.504;2023-01-04T17:01:48;12.63;81.38
71173;DHT22;58875;51.996;4.504;2023-01-04T17:04:15;12.61;81.28
71173;DHT22;58875;51.996;4.504;2023-01-04T17:06:43;12.54;81.43
71173;DHT22;58875;51.996;4.504;2023-01-04T17:09:16;12.51;81.91
71173;DHT22;58875;51.996;4.504;2023-01-04T17:11:42;12.47;81.77
71173;DHT22;58875;51.996;4.504;2023-01-04T17:14:22;12.48;81.82
71173;DHT22;58875;51.996;4.504;2023-01-04T17:16:49;12.50;81.45
71173;DHT22;58875;51.996;4.504;2023-01-04T17:19:15;12.53;81.38
71173;DHT22;58875;51.996;4.504;2023-01-04T17:21:40;12.57;81.26
71173;DHT22;58875;51.996;4.504;2023-01-04T17:24:06;12.58;81.10
71173;DHT22;58875;51.996;4.504;2023-01-04T17:26:32;12.56;80.96
71173;DHT22;58875;51.996;4.504;2023-01-04T17:28:59;12.63;80.58
71173;DHT22;58875;51.996;4.504;2023-01-04T17:31:28;12.57;80.70
71173;DHT22;58875;51.996;4.504;2023-01-04T17:33:54;12.58;80.66
71173;DHT22;58875;51.996;4.504;2023-01-04T17:36:21;12.61;80.83
71173;DHT22;58875;51.996;4.504;2023-01-04T17:38:46;12.60;80.97
71173;DHT22;58875;51.996;4.504;2023-01-04T17:41:20;12.64;81.05
71173;DHT22;58875;51.996;4.504;2023-01-04T17:43:48;12.60;81.28
71173;DHT22;58875;51.996;4.504;2023-01-04T17:46:19;12.53;81.60
71173;DHT22;58875;51.996;4.504;2023-01-04T17:48:45;12.53;81.65
71173;DHT22;58875;51.996;4.504;2023-01-04T17:51:18;12.48;81.85
71173;DHT22;58875;51.996;4.504;2023-01-04T17:53:53;12.47;82.03
71173;DHT22;58875;51.996;4.504;2023-01-04T17:56:21;12.51;82.03
71173;DHT22;58875;51.996;4.504;2023-01-04T17:58:50;12.53;81.92
71173;DHT22;58875;51.996;4.504;2023-01-04T18:01:20;12.54;81.82
71173;DHT22;58875;51.996;4.504;2023-01-04T18:03:48;12.53;82.09
71173;DHT22;58875;51.996;4.504;2023-01-04T18:06:16;12.54;82.15
71173;DHT22;58875;51.996;4.504;2023-01-04T18:08:42;12.53;82.17
71173;DHT22;58875;51.996;4.504;2023-01-04T18:11:09;12.50;82.18
71173;DHT22;58875;51.996;4.504;2023-01-04T18:13:37;12.54;82.12